Private Wetterstation Sandau
Wetterdaten: Samstag, 04.08.2012
Datum Zeit Temp. A. Feuchte A. Luftdruck Regen Wind Richtung Richtung Taupunkt Windchill
04.08.2012 00:01 18,8 C 72 % 1016,1 hPa 0,0 l/m 0,0 km/h (0 Bft) O-SO 112 13,6 C 18,8 C
04.08.2012 00:06 18,8 C 72 % 1016,0 hPa 0,0 l/m 0,0 km/h (0 Bft) O-SO 112 13,6 C 18,8 C
04.08.2012 00:11 18,7 C 73 % 1016,2 hPa 0,0 l/m 1,1 km/h (1 Bft) O-SO 112 13,8 C 18,7 C
04.08.2012 00:16 18,6 C 73 % 1016,0 hPa 0,0 l/m 0,0 km/h (0 Bft) O-SO 112 13,7 C 18,6 C
04.08.2012 00:21 18,6 C 73 % 1016,2 hPa 0,0 l/m 0,0 km/h (0 Bft) SO 135 13,7 C 18,6 C
04.08.2012 00:26 18,6 C 73 % 1016,1 hPa 0,0 l/m 1,4 km/h (1 Bft) SO 135 13,7 C 18,6 C
04.08.2012 00:31 18,5 C 73 % 1016,1 hPa 0,0 l/m 1,4 km/h (1 Bft) O-SO 112 13,6 C 18,5 C
04.08.2012 00:36 18,5 C 73 % 1016,2 hPa 0,0 l/m 3,6 km/h (1 Bft) SO 135 13,6 C 18,5 C
04.08.2012 00:41 18,5 C 73 % 1016,0 hPa 0,0 l/m 0,0 km/h (0 Bft) O-SO 112 13,6 C 18,5 C
04.08.2012 00:46 18,4 C 74 % 1016,0 hPa 0,0 l/m 2,2 km/h (1 Bft) SO 135 13,7 C 18,4 C
04.08.2012 00:51 18,4 C 74 % 1016,1 hPa 0,0 l/m 1,4 km/h (1 Bft) SO 135 13,7 C 18,4 C
04.08.2012 00:56 18,4 C 74 % 1016,1 hPa 0,0 l/m 4,7 km/h (1 Bft) SO 135 13,7 C 18,4 C
04.08.2012 01:01 18,3 C 74 % 1016,1 hPa 0,0 l/m 2,5 km/h (1 Bft) O-SO 112 13,6 C 18,3 C
04.08.2012 01:06 18,3 C 74 % 1016,1 hPa 0,0 l/m 2,5 km/h (1 Bft) SO 135 13,6 C 18,3 C
04.08.2012 01:11 18,2 C 75 % 1016,1 hPa 0,0 l/m 2,9 km/h (1 Bft) O-SO 112 13,7 C 18,2 C
04.08.2012 01:16 18,2 C 75 % 1016,0 hPa 0,0 l/m 3,6 km/h (1 Bft) O-SO 112 13,7 C 18,2 C
04.08.2012 01:21 18,1 C 75 % 1015,8 hPa 0,0 l/m 1,4 km/h (1 Bft) O-SO 112 13,6 C 18,1 C
04.08.2012 01:26 18,1 C 75 % 1015,9 hPa 0,0 l/m 1,8 km/h (1 Bft) O-SO 112 13,6 C 18,1 C
04.08.2012 01:31 18,1 C 75 % 1015,9 hPa 0,0 l/m 3,6 km/h (1 Bft) O-SO 112 13,6 C 18,1 C
04.08.2012 01:36 18,1 C 76 % 1015,9 hPa 0,0 l/m 3,6 km/h (1 Bft) SO 135 13,8 C 18,1 C
04.08.2012 01:41 18,1 C 76 % 1015,8 hPa 0,0 l/m 2,2 km/h (1 Bft) O-SO 112 13,8 C 18,1 C
04.08.2012 01:46 17,9 C 76 % 1015,8 hPa 0,0 l/m 0,0 km/h (0 Bft) O-SO 112 13,6 C 17,9 C
04.08.2012 01:51 17,9 C 76 % 1015,8 hPa 0,0 l/m 0,0 km/h (0 Bft) O-SO 112 13,6 C 17,9 C
04.08.2012 01:56 17,9 C 76 % 1015,9 hPa 0,0 l/m 0,0 km/h (0 Bft) O-SO 112 13,6 C 17,9 C
04.08.2012 02:01 17,9 C 76 % 1015,8 hPa 0,0 l/m 0,0 km/h (0 Bft) O-SO 112 13,6 C 17,9 C
04.08.2012 02:06 17,9 C 76 % 1015,8 hPa 0,0 l/m 0,0 km/h (0 Bft) O-SO 112 13,6 C 17,9 C
04.08.2012 02:11 17,9 C 76 % 1015,8 hPa 0,0 l/m 0,0 km/h (0 Bft) W 270 13,6 C 17,9 C
04.08.2012 02:16 17,8 C 77 % 1015,8 hPa 0,0 l/m 0,0 km/h (0 Bft) W-NW 292 13,7 C 17,8 C
04.08.2012 02:21 17,6 C 77 % 1015,8 hPa 0,0 l/m 1,4 km/h (1 Bft) N-NO 22 13,5 C 17,6 C
04.08.2012 02:26 17,5 C 78 % 1015,8 hPa 0,0 l/m 0,0 km/h (0 Bft) N-NO 22 13,6 C 17,5 C
04.08.2012 02:31 17,4 C 78 % 1015,9 hPa 0,0 l/m 1,1 km/h (1 Bft) NW 315 13,5 C 17,4 C
04.08.2012 02:36 17,3 C 78 % 1015,9 hPa 0,0 l/m 0,0 km/h (0 Bft) NW 315 13,4 C 17,3 C
04.08.2012 02:41 17,3 C 78 % 1015,9 hPa 0,0 l/m 0,0 km/h (0 Bft) NW 315 13,4 C 17,3 C
04.08.2012 02:46 17,3 C 78 % 1015,7 hPa 0,0 l/m 0,0 km/h (0 Bft) NW 315 13,4 C 17,3 C
04.08.2012 02:51 17,2 C 79 % 1015,7 hPa 0,0 l/m 0,0 km/h (0 Bft) N-NO 22 13,5 C 17,2 C
04.08.2012 02:56 17,2 C 80 % 1015,7 hPa 0,0 l/m 0,0 km/h (0 Bft) N-NO 22 13,7 C 17,2 C
04.08.2012 03:01 17,1 C 80 % 1015,7 hPa 0,0 l/m 1,8 km/h (1 Bft) N-NO 22 13,6 C 17,1 C
04.08.2012 03:06 16,9 C 80 % 1015,7 hPa 0,0 l/m 0,0 km/h (0 Bft) N-NO 22 13,4 C 16,9 C
04.08.2012 03:11 16,9 C 80 % 1015,7 hPa 0,0 l/m 0,0 km/h (0 Bft) N-NO 22 13,4 C 16,9 C
04.08.2012 03:16 16,9 C 80 % 1015,7 hPa 0,0 l/m 1,4 km/h (1 Bft) N-NO 22 13,4 C 16,9 C
04.08.2012 03:21 16,8 C 81 % 1015,7 hPa 0,0 l/m 0,0 km/h (0 Bft) N-NO 22 13,5 C 16,8 C
04.08.2012 03:26 16,8 C 81 % 1015,6 hPa 0,0 l/m 0,0 km/h (0 Bft) N-NO 22 13,5 C 16,8 C
04.08.2012 03:31 16,7 C 81 % 1015,6 hPa 0,0 l/m 0,0 km/h (0 Bft) N-NO 22 13,4 C 16,7 C
04.08.2012 03:36 16,7 C 81 % 1015,6 hPa 0,0 l/m 0,0 km/h (0 Bft) N-NO 22 13,4 C 16,7 C
04.08.2012 03:41 16,6 C 81 % 1015,5 hPa 0,0 l/m 0,0 km/h (0 Bft) N-NO 22 13,3 C 16,6 C
04.08.2012 03:46 16,5 C 81 % 1015,6 hPa 0,0 l/m 0,0 km/h (0 Bft) N-NO 22 13,2 C 16,5 C
04.08.2012 03:51 16,5 C 81 % 1015,5 hPa 0,0 l/m 0,0 km/h (0 Bft) N-NO 22 13,2 C 16,5 C
04.08.2012 03:56 16,4 C 81 % 1015,6 hPa 0,0 l/m 0,0 km/h (0 Bft) N-NO 22 13,1 C 16,4 C
04.08.2012 04:01 16,4 C 81 % 1015,5 hPa 0,0 l/m 0,0 km/h (0 Bft) N-NO 22 13,1 C 16,4 C
04.08.2012 04:06 16,4 C 81 % 1015,5 hPa 0,0 l/m 0,0 km/h (0 Bft) N-NW 337 13,1 C 16,4 C
04.08.2012 04:11 16,3 C 81 % 1015,4 hPa 0,0 l/m 0,0 km/h (0 Bft) N-NW 337 13,0 C 16,3 C
04.08.2012 04:16 16,3 C 81 % 1015,5 hPa 0,0 l/m 0,0 km/h (0 Bft) N-NW 337 13,0 C 16,3 C
04.08.2012 04:21 16,3 C 81 % 1015,5 hPa 0,0 l/m 0,0 km/h (0 Bft) N-NW 337 13,0 C 16,3 C
04.08.2012 04:26 16,2 C 82 % 1015,4 hPa 0,0 l/m 0,0 km/h (0 Bft) N-NW 337 13,1 C 16,2 C
04.08.2012 04:31 16,1 C 82 % 1015,5 hPa 0,0 l/m 0,0 km/h (0 Bft) N-NW 337 13,0 C 16,1 C
04.08.2012 04:36 16,1 C 82 % 1015,6 hPa 0,0 l/m 0,0 km/h (0 Bft) N 360 13,0 C 16,1 C
04.08.2012 04:41 16,0 C 82 % 1015,5 hPa 0,0 l/m 2,2 km/h (1 Bft) N 360 12,9 C 16,0 C
04.08.2012 04:46 15,9 C 82 % 1015,4 hPa 0,0 l/m 2,9 km/h (1 Bft) N-NO 22 12,8 C 15,9 C
04.08.2012 04:51 15,9 C 82 % 1015,5 hPa 0,0 l/m 1,4 km/h (1 Bft) N 360 12,8 C 15,9 C
04.08.2012 04:56 15,8 C 82 % 1015,4 hPa 0,0 l/m 0,0 km/h (0 Bft) N-NW 337 12,7 C 15,8 C
04.08.2012 05:01 15,6 C 83 % 1015,6 hPa 0,0 l/m 0,0 km/h (0 Bft) N-NW 337 12,7 C 15,6 C
04.08.2012 05:06 15,5 C 83 % 1015,5 hPa 0,0 l/m 0,0 km/h (0 Bft) N-NW 337 12,6 C 15,5 C
04.08.2012 05:11 15,4 C 83 % 1015,4 hPa 0,0 l/m 0,0 km/h (0 Bft) N-NW 337 12,5 C 15,4 C
04.08.2012 05:16 15,3 C 83 % 1015,5 hPa 0,0 l/m 0,0 km/h (0 Bft) N-NW 337 12,4 C 15,3 C
04.08.2012 05:21 15,1 C 83 % 1015,5 hPa 0,0 l/m 0,0 km/h (0 Bft) N-NW 337 12,2 C 15,1 C
04.08.2012 05:26 14,9 C 84 % 1015,5 hPa 0,0 l/m 0,0 km/h (0 Bft) N 360 12,2 C 14,9 C
04.08.2012 05:31 14,9 C 85 % 1015,5 hPa 0,0 l/m 0,0 km/h (0 Bft) N-NW 337 12,4 C 14,9 C
04.08.2012 05:36 14,9 C 85 % 1015,7 hPa 0,0 l/m 0,0 km/h (0 Bft) N-NW 337 12,4 C 14,9 C
04.08.2012 05:41 14,9 C 86 % 1015,6 hPa 0,0 l/m 0,0 km/h (0 Bft) N-NW 337 12,6 C 14,9 C
04.08.2012 05:46 14,9 C 86 % 1015,7 hPa 0,0 l/m 0,0 km/h (0 Bft) N-NW 337 12,6 C 14,9 C
04.08.2012 05:51 14,9 C 86 % 1015,7 hPa 0,0 l/m 1,1 km/h (1 Bft) NW 315 12,6 C 14,9 C
04.08.2012 05:56 14,9 C 86 % 1015,7 hPa 0,0 l/m 0,0 km/h (0 Bft) NW 315 12,6 C 14,9 C
04.08.2012 06:01 14,9 C 86 % 1015,6 hPa 0,0 l/m 0,0 km/h (0 Bft) NW 315 12,6 C 14,9 C
04.08.2012 06:06 14,9 C 86 % 1015,6 hPa 0,0 l/m 0,0 km/h (0 Bft) NW 315 12,6 C 14,9 C
04.08.2012 06:11 14,9 C 86 % 1015,6 hPa 0,0 l/m 0,0 km/h (0 Bft) NW 315 12,6 C 14,9 C
04.08.2012 06:16 14,9 C 86 % 1015,6 hPa 0,0 l/m 0,0 km/h (0 Bft) NW 315 12,6 C 14,9 C
04.08.2012 06:21 14,9 C 87 % 1015,6 hPa 0,0 l/m 0,0 km/h (0 Bft) NW 315 12,8 C 14,9 C
04.08.2012 06:26 15,4 C 87 % 1015,6 hPa 0,0 l/m 0,0 km/h (0 Bft) NW 315 13,2 C 15,4 C
04.08.2012 06:31 16,0 C 88 % 1015,6 hPa 0,0 l/m 0,0 km/h (0 Bft) NW 315 14,0 C 16,0 C
04.08.2012 06:36 16,7 C 86 % 1015,6 hPa 0,0 l/m 0,0 km/h (0 Bft) NW 315 14,3 C 16,7 C
04.08.2012 06:41 17,5 C 85 % 1015,6 hPa 0,0 l/m 0,0 km/h (0 Bft) NW 315 14,9 C 17,5 C
04.08.2012 06:46 18,2 C 82 % 1015,6 hPa 0,0 l/m 0,0 km/h (0 Bft) NW 315 15,1 C 18,2 C
04.08.2012 06:51 18,7 C 79 % 1015,6 hPa 0,0 l/m 0,0 km/h (0 Bft) NW 315 15,0 C 18,7 C
04.08.2012 06:56 19,0 C 78 % 1015,6 hPa 0,0 l/m 0,0 km/h (0 Bft) NW 315 15,1 C 19,0 C
04.08.2012 07:01 19,3 C 76 % 1015,6 hPa 0,0 l/m 0,0 km/h (0 Bft) NW 315 15,0 C 19,3 C
04.08.2012 07:06 19,4 C 75 % 1015,6 hPa 0,0 l/m 0,0 km/h (0 Bft) NW 315 14,8 C 19,4 C
04.08.2012 07:11 19,6 C 75 % 1015,7 hPa 0,0 l/m 0,0 km/h (0 Bft) NW 315 15,0 C 19,6 C
04.08.2012 07:16 19,8 C 74 % 1015,7 hPa 0,0 l/m 0,0 km/h (0 Bft) NW 315 15,0 C 19,8 C
04.08.2012 07:21 19,9 C 74 % 1015,7 hPa 0,0 l/m 0,0 km/h (0 Bft) NW 315 15,1 C 19,9 C
04.08.2012 07:26 20,1 C 73 % 1015,6 hPa 0,0 l/m 0,0 km/h (0 Bft) NW 315 15,1 C 20,1 C
04.08.2012 07:31 20,2 C 73 % 1015,7 hPa 0,0 l/m 0,0 km/h (0 Bft) NW 315 15,2 C 20,2 C
04.08.2012 07:36 20,2 C 72 % 1015,7 hPa 0,0 l/m 0,0 km/h (0 Bft) NW 315 15,0 C 20,2 C
04.08.2012 07:41 20,1 C 72 % 1015,7 hPa 0,0 l/m 0,0 km/h (0 Bft) NW 315 14,9 C 20,1 C
04.08.2012 07:46 20,1 C 72 % 1015,7 hPa 0,0 l/m 0,0 km/h (0 Bft) NW 315 14,9 C 20,1 C
04.08.2012 07:51 20,2 C 72 % 1015,7 hPa 0,0 l/m 0,0 km/h (0 Bft) NW 315 15,0 C 20,2 C
04.08.2012 07:56 20,4 C 72 % 1015,6 hPa 0,0 l/m 0,0 km/h (0 Bft) NW 315 15,2 C 20,4 C
04.08.2012 08:01 20,5 C 72 % 1015,6 hPa 0,0 l/m 0,0 km/h (0 Bft) NW 315 15,3 C 20,5 C
04.08.2012 08:06 20,8 C 71 % 1015,6 hPa 0,0 l/m 0,0 km/h (0 Bft) NW 315 15,3 C 20,8 C
04.08.2012 08:11 20,8 C 70 % 1015,5 hPa 0,0 l/m 0,0 km/h (0 Bft) NW 315 15,1 C 20,8 C
04.08.2012 08:16 20,8 C 70 % 1015,6 hPa 0,0 l/m 0,0 km/h (0 Bft) NW 315 15,1 C 20,8 C
04.08.2012 08:21 20,9 C 70 % 1015,7 hPa 0,0 l/m 0,0 km/h (0 Bft) NW 315 15,2 C 20,9 C
04.08.2012 08:26 21,1 C 70 % 1015,6 hPa 0,0 l/m 0,0 km/h (0 Bft) NW 315 15,4 C 21,1 C
04.08.2012 08:31 21,2 C 69 % 1015,6 hPa 0,0 l/m 0,0 km/h (0 Bft) NW 315 15,3 C 21,2 C
04.08.2012 08:36 21,3 C 69 % 1015,6 hPa 0,0 l/m 0,0 km/h (0 Bft) W-SW 247 15,4 C 21,3 C
04.08.2012 08:41 21,5 C 69 % 1015,6 hPa 0,0 l/m 1,8 km/h (1 Bft) W-SW 247 15,6 C 21,5 C
04.08.2012 08:46 21,8 C 68 % 1015,6 hPa 0,0 l/m 1,4 km/h (1 Bft) W 270 15,6 C 21,8 C
04.08.2012 08:51 21,9 C 68 % 1015,6 hPa 0,0 l/m 2,5 km/h (1 Bft) SW 225 15,7 C 21,9 C
04.08.2012 08:56 21,9 C 67 % 1015,7 hPa 0,0 l/m 0,0 km/h (0 Bft) SW 225 15,5 C 21,9 C
04.08.2012 09:01 21,8 C 66 % 1015,7 hPa 0,0 l/m 0,0 km/h (0 Bft) SO 135 15,2 C 21,8 C
04.08.2012 09:06 21,6 C 66 % 1015,6 hPa 0,0 l/m 0,0 km/h (0 Bft) SO 135 15,0 C 21,6 C
04.08.2012 09:11 21,8 C 66 % 1015,6 hPa 0,0 l/m 3,2 km/h (1 Bft) S 180 15,2 C 21,8 C
04.08.2012 09:16 21,9 C 66 % 1015,5 hPa 0,0 l/m 3,2 km/h (1 Bft) SW 225 15,3 C 21,9 C
04.08.2012 09:21 22,2 C 64 % 1015,5 hPa 0,0 l/m 0,0 km/h (0 Bft) S 180 15,1 C 22,2 C
04.08.2012 09:26 22,3 C 64 % 1015,4 hPa 0,0 l/m 2,5 km/h (1 Bft) S 180 15,2 C 22,3 C
04.08.2012 09:31 22,5 C 64 % 1015,5 hPa 0,0 l/m 0,0 km/h (0 Bft) W-NW 292 15,3 C 22,5 C
04.08.2012 09:36 22,6 C 64 % 1015,5 hPa 0,0 l/m 0,0 km/h (0 Bft) W 270 15,4 C 22,6 C
04.08.2012 09:41 22,5 C 64 % 1015,5 hPa 0,0 l/m 2,5 km/h (1 Bft) NW 315 15,3 C 22,5 C
04.08.2012 09:46 22,6 C 64 % 1015,4 hPa 0,0 l/m 0,0 km/h (0 Bft) SW 225 15,4 C 22,6 C
04.08.2012 09:51 22,9 C 64 % 1015,4 hPa 0,0 l/m 1,4 km/h (1 Bft) NO 45 15,7 C 22,9 C
04.08.2012 09:56 23,2 C 63 % 1015,4 hPa 0,0 l/m 3,6 km/h (1 Bft) N 360 15,8 C 23,2 C
04.08.2012 10:01 23,2 C 60 % 1015,3 hPa 0,0 l/m 0,0 km/h (0 Bft) SO 135 15,0 C 23,2 C
04.08.2012 10:06 23,3 C 59 % 1015,4 hPa 0,0 l/m 3,2 km/h (1 Bft) S 180 14,8 C 23,3 C
04.08.2012 10:11 23,4 C 59 % 1015,3 hPa 0,0 l/m 1,8 km/h (1 Bft) SO 135 14,9 C 23,4 C
04.08.2012 10:16 23,5 C 56 % 1015,3 hPa 0,0 l/m 6,5 km/h (2 Bft) NO 45 14,2 C 23,5 C
04.08.2012 10:21 23,5 C 57 % 1015,4 hPa 0,0 l/m 1,8 km/h (1 Bft) O-SO 112 14,5 C 23,5 C
04.08.2012 10:26 23,6 C 58 % 1015,3 hPa 0,0 l/m 6,1 km/h (2 Bft) S-SO 157 14,8 C 23,6 C
04.08.2012 10:31 23,9 C 56 % 1015,3 hPa 0,0 l/m 1,8 km/h (1 Bft) O-NO 67 14,6 C 23,9 C
04.08.2012 10:36 24,2 C 55 % 1015,3 hPa 0,0 l/m 2,2 km/h (1 Bft) W-SW 247 14,6 C 24,2 C
04.08.2012 10:41 24,4 C 55 % 1015,4 hPa 0,0 l/m 5,8 km/h (2 Bft) SO 135 14,8 C 24,4 C
04.08.2012 10:46 24,3 C 55 % 1015,4 hPa 0,0 l/m 0,0 km/h (0 Bft) O-NO 67 14,7 C 24,3 C
04.08.2012 10:51 24,4 C 56 % 1015,4 hPa 0,0 l/m 7,6 km/h (2 Bft) SW 225 15,0 C 24,4 C
04.08.2012 10:56 24,7 C 55 % 1015,5 hPa 0,0 l/m 0,0 km/h (0 Bft) W-SW 247 15,0 C 24,7 C
04.08.2012 11:01 24,8 C 53 % 1015,4 hPa 0,0 l/m 2,2 km/h (1 Bft) O-SO 112 14,6 C 24,8 C
04.08.2012 11:06 24,9 C 53 % 1015,3 hPa 0,0 l/m 3,6 km/h (1 Bft) W-SW 247 14,6 C 24,9 C
04.08.2012 11:11 25,2 C 52 % 1015,3 hPa 0,0 l/m 7,9 km/h (2 Bft) W-SW 247 14,6 C 25,2 C
04.08.2012 11:16 25,3 C 52 % 1015,1 hPa 0,0 l/m 0,0 km/h (0 Bft) W 270 14,7 C 25,3 C
04.08.2012 11:21 25,4 C 52 % 1015,2 hPa 0,0 l/m 2,5 km/h (1 Bft) SW 225 14,8 C 25,4 C
04.08.2012 11:26 25,6 C 51 % 1015,2 hPa 0,0 l/m 7,6 km/h (2 Bft) W-SW 247 14,7 C 25,6 C
04.08.2012 11:31 25,8 C 51 % 1015,0 hPa 0,0 l/m 4,0 km/h (1 Bft) NW 315 14,9 C 25,8 C
04.08.2012 11:36 25,9 C 50 % 1014,9 hPa 0,0 l/m 1,1 km/h (1 Bft) S 180 14,7 C 25,9 C
04.08.2012 11:41 25,9 C 49 % 1015,0 hPa 0,0 l/m 4,0 km/h (1 Bft) NW 315 14,4 C 25,9 C
04.08.2012 11:46 26,1 C 49 % 1015,0 hPa 0,0 l/m 5,0 km/h (1 Bft) SW 225 14,5 C 26,1 C
04.08.2012 11:51 26,2 C 49 % 1015,0 hPa 0,0 l/m 2,5 km/h (1 Bft) N-NW 337 14,6 C 26,2 C
04.08.2012 11:56 26,4 C 49 % 1015,0 hPa 0,0 l/m 7,6 km/h (2 Bft) SW 225 14,8 C 26,4 C
04.08.2012 12:01 26,5 C 48 % 1014,9 hPa 0,0 l/m 5,8 km/h (2 Bft) SW 225 14,6 C 26,5 C
04.08.2012 12:06 26,6 C 47 % 1015,0 hPa 0,0 l/m 3,6 km/h (1 Bft) S-SW 202 14,3 C 26,6 C
04.08.2012 12:11 26,8 C 47 % 1015,0 hPa 0,0 l/m 2,9 km/h (1 Bft) S-SO 157 14,5 C 26,8 C
04.08.2012 12:16 26,9 C 46 % 1015,0 hPa 0,0 l/m 0,0 km/h (0 Bft) S-SO 157 14,3 C 26,9 C
04.08.2012 12:21 26,9 C 46 % 1014,8 hPa 0,0 l/m 2,9 km/h (1 Bft) W-SW 247 14,3 C 26,9 C
04.08.2012 12:26 27,0 C 46 % 1014,7 hPa 0,0 l/m 4,3 km/h (1 Bft) S-SO 157 14,4 C 27,0 C
04.08.2012 12:31 27,2 C 43 % 1014,6 hPa 0,0 l/m 3,6 km/h (1 Bft) W-SW 247 13,5 C 27,2 C
04.08.2012 12:36 26,9 C 43 % 1014,6 hPa 0,0 l/m 1,1 km/h (1 Bft) S 180 13,2 C 26,9 C
04.08.2012 12:41 26,8 C 44 % 1014,5 hPa 0,0 l/m 1,1 km/h (1 Bft) S-SW 202 13,5 C 26,8 C
04.08.2012 12:46 26,8 C 44 % 1014,5 hPa 0,0 l/m 9,7 km/h (2 Bft) S-SW 202 13,5 C 26,8 C
04.08.2012 12:51 27,0 C 45 % 1014,5 hPa 0,0 l/m 5,8 km/h (2 Bft) W-SW 247 14,0 C 27,0 C
04.08.2012 12:56 27,3 C 43 % 1014,6 hPa 0,0 l/m 3,6 km/h (1 Bft) SW 225 13,6 C 27,3 C
04.08.2012 13:01 27,5 C 43 % 1014,5 hPa 0,0 l/m 3,2 km/h (1 Bft) SW 225 13,8 C 27,5 C
04.08.2012 13:06 27,8 C 42 % 1014,5 hPa 0,0 l/m 4,7 km/h (1 Bft) W-SW 247 13,7 C 27,8 C
04.08.2012 13:11 27,9 C 42 % 1014,4 hPa 0,0 l/m 5,0 km/h (1 Bft) W 270 13,8 C 27,9 C
04.08.2012 13:16 27,6 C 42 % 1014,4 hPa 0,0 l/m 2,2 km/h (1 Bft) W 270 13,5 C 27,6 C
04.08.2012 13:21 27,2 C 43 % 1014,2 hPa 0,0 l/m 2,5 km/h (1 Bft) W-SW 247 13,5 C 27,2 C
04.08.2012 13:26 27,2 C 43 % 1014,2 hPa 0,0 l/m 3,6 km/h (1 Bft) W 270 13,5 C 27,2 C
04.08.2012 13:31 27,3 C 42 % 1014,0 hPa 0,0 l/m 1,8 km/h (1 Bft) N-NO 22 13,2 C 27,3 C
04.08.2012 13:36 27,6 C 42 % 1014,1 hPa 0,0 l/m 9,0 km/h (2 Bft) W 270 13,5 C 27,6 C
04.08.2012 13:41 27,8 C 41 % 1014,1 hPa 0,0 l/m 5,8 km/h (2 Bft) SW 225 13,3 C 27,8 C
04.08.2012 13:46 27,9 C 41 % 1014,0 hPa 0,0 l/m 12,2 km/h (2 Bft) SW 225 13,4 C 27,9 C
04.08.2012 13:51 27,9 C 41 % 1014,0 hPa 0,0 l/m 7,2 km/h (2 Bft) W-SW 247 13,4 C 27,9 C
04.08.2012 13:56 27,4 C 42 % 1013,9 hPa 0,0 l/m 7,9 km/h (2 Bft) W-SW 247 13,3 C 27,4 C
04.08.2012 14:01 27,3 C 42 % 1013,8 hPa 0,0 l/m 12,6 km/h (3 Bft) W-NW 292 13,2 C 27,3 C
04.08.2012 14:06 27,1 C 42 % 1013,7 hPa 0,0 l/m 3,2 km/h (1 Bft) W 270 13,1 C 27,1 C
04.08.2012 14:11 27,0 C 43 % 1013,8 hPa 0,0 l/m 0,0 km/h (0 Bft) W 270 13,3 C 27,0 C
04.08.2012 14:16 26,6 C 44 % 1013,9 hPa 0,0 l/m 7,2 km/h (2 Bft) W-SW 247 13,3 C 26,6 C
04.08.2012 14:21 26,1 C 43 % 1014,2 hPa 0,0 l/m 25,6 km/h (4 Bft) W-SW 247 12,5 C 26,1 C
04.08.2012 14:26 24,8 C 46 % 1014,1 hPa 0,0 l/m 28,4 km/h (4 Bft) NW 315 12,4 C 24,8 C
04.08.2012 14:31 23,3 C 54 % 1014,1 hPa 0,0 l/m 4,7 km/h (1 Bft) W-NW 292 13,5 C 23,3 C
04.08.2012 14:36 23,1 C 57 % 1014,0 hPa 0,0 l/m 6,1 km/h (2 Bft) NW 315 14,1 C 23,1 C
04.08.2012 14:41 23,4 C 54 % 1014,0 hPa 0,0 l/m 4,7 km/h (1 Bft) NO 45 13,6 C 23,4 C
04.08.2012 14:46 23,8 C 53 % 1014,1 hPa 0,0 l/m 3,2 km/h (1 Bft) N 360 13,6 C 23,8 C
04.08.2012 14:51 24,1 C 52 % 1013,9 hPa 0,0 l/m 12,2 km/h (2 Bft) N 360 13,6 C 24,1 C
04.08.2012 14:56 24,3 C 53 % 1014,0 hPa 0,0 l/m 2,2 km/h (1 Bft) N-NO 22 14,1 C 24,3 C
04.08.2012 15:01 24,8 C 51 % 1014,0 hPa 0,0 l/m 1,4 km/h (1 Bft) W 270 14,0 C 24,8 C
04.08.2012 15:06 25,3 C 49 % 1013,9 hPa 0,0 l/m 0,0 km/h (0 Bft) N-NW 337 13,8 C 25,3 C
04.08.2012 15:11 25,9 C 46 % 1014,0 hPa 0,0 l/m 0,0 km/h (0 Bft) NW 315 13,4 C 25,9 C
04.08.2012 15:16 26,2 C 45 % 1013,9 hPa 0,0 l/m 0,0 km/h (0 Bft) W-NW 292 13,3 C 26,2 C
04.08.2012 15:21 26,4 C 46 % 1013,9 hPa 0,0 l/m 3,6 km/h (1 Bft) W-NW 292 13,8 C 26,4 C
04.08.2012 15:26 26,6 C 46 % 1013,9 hPa 0,0 l/m 1,4 km/h (1 Bft) W-SW 247 14,0 C 26,6 C
04.08.2012 15:31 26,6 C 46 % 1013,8 hPa 0,0 l/m 0,0 km/h (0 Bft) NW 315 14,0 C 26,6 C
04.08.2012 15:36 26,6 C 46 % 1013,7 hPa 0,0 l/m 0,0 km/h (0 Bft) W-SW 247 14,0 C 26,6 C
04.08.2012 15:41 26,8 C 46 % 1013,5 hPa 0,0 l/m 0,0 km/h (0 Bft) N-NW 337 14,2 C 26,8 C
04.08.2012 15:46 26,9 C 46 % 1013,5 hPa 0,0 l/m 0,0 km/h (0 Bft) W-SW 247 14,3 C 26,9 C
04.08.2012 15:51 27,4 C 46 % 1013,5 hPa 0,0 l/m 2,5 km/h (1 Bft) SO 135 14,7 C 27,4 C
04.08.2012 15:56 27,9 C 45 % 1013,5 hPa 0,0 l/m 0,0 km/h (0 Bft) S 180 14,8 C 27,9 C
04.08.2012 16:01 28,3 C 44 % 1013,4 hPa 0,0 l/m 5,0 km/h (1 Bft) S-SW 202 14,9 C 28,3 C
04.08.2012 16:06 28,3 C 41 % 1013,5 hPa 0,0 l/m 0,0 km/h (0 Bft) N-NO 22 13,8 C 28,3 C
04.08.2012 16:11 28,3 C 44 % 1013,4 hPa 0,0 l/m 1,1 km/h (1 Bft) S-SO 157 14,9 C 28,3 C
04.08.2012 16:16 28,5 C 41 % 1013,3 hPa 0,0 l/m 6,5 km/h (2 Bft) SO 135 13,9 C 28,5 C
04.08.2012 16:21 28,1 C 40 % 1013,3 hPa 0,0 l/m 7,6 km/h (2 Bft) SW 225 13,2 C 28,1 C
04.08.2012 16:26 27,9 C 40 % 1013,2 hPa 0,0 l/m 11,2 km/h (2 Bft) S-SW 202 13,0 C 27,9 C
04.08.2012 16:31 28,0 C 40 % 1013,1 hPa 0,0 l/m 8,6 km/h (2 Bft) S-SW 202 13,1 C 28,0 C
04.08.2012 16:36 28,4 C 40 % 1012,9 hPa 0,0 l/m 9,4 km/h (2 Bft) W 270 13,5 C 28,4 C
04.08.2012 16:41 28,6 C 38 % 1012,9 hPa 0,0 l/m 6,1 km/h (2 Bft) W 270 12,9 C 28,6 C
04.08.2012 16:46 28,7 C 38 % 1012,9 hPa 0,0 l/m 9,7 km/h (2 Bft) W-SW 247 13,0 C 28,7 C
04.08.2012 16:51 28,6 C 37 % 1012,9 hPa 0,0 l/m 7,9 km/h (2 Bft) W-SW 247 12,5 C 28,6 C
04.08.2012 16:56 28,6 C 37 % 1012,9 hPa 0,0 l/m 8,6 km/h (2 Bft) S-SW 202 12,5 C 28,6 C
04.08.2012 17:01 27,9 C 37 % 1012,9 hPa 0,0 l/m 18,0 km/h (3 Bft) W-SW 247 11,8 C 27,9 C
04.08.2012 17:06 27,5 C 38 % 1013,0 hPa 0,0 l/m 8,6 km/h (2 Bft) W-SW 247 11,9 C 27,5 C
04.08.2012 17:11 27,1 C 39 % 1013,1 hPa 0,0 l/m 4,7 km/h (1 Bft) W 270 11,9 C 27,1 C
04.08.2012 17:16 26,7 C 41 % 1013,1 hPa 0,0 l/m 2,5 km/h (1 Bft) SW 225 12,3 C 26,7 C
04.08.2012 17:21 26,6 C 41 % 1013,1 hPa 0,0 l/m 6,1 km/h (2 Bft) W-SW 247 12,2 C 26,6 C
04.08.2012 17:26 26,4 C 43 % 1013,1 hPa 0,0 l/m 7,9 km/h (2 Bft) W-NW 292 12,8 C 26,4 C
04.08.2012 17:31 26,3 C 43 % 1013,2 hPa 0,0 l/m 5,0 km/h (1 Bft) W-NW 292 12,7 C 26,3 C
04.08.2012 17:36 25,9 C 47 % 1013,2 hPa 0,0 l/m 10,8 km/h (2 Bft) N-NO 22 13,7 C 25,9 C
04.08.2012 17:41 25,1 C 52 % 1013,3 hPa 0,0 l/m 7,9 km/h (2 Bft) N 360 14,5 C 25,1 C
04.08.2012 17:46 24,9 C 53 % 1013,2 hPa 0,0 l/m 9,7 km/h (2 Bft) N 360 14,6 C 24,9 C
04.08.2012 17:51 24,9 C 52 % 1013,1 hPa 0,0 l/m 6,1 km/h (2 Bft) N-NW 337 14,4 C 24,9 C
04.08.2012 17:56 24,9 C 52 % 1013,2 hPa 0,0 l/m 6,1 km/h (2 Bft) N-NO 22 14,4 C 24,9 C
04.08.2012 18:01 24,9 C 52 % 1013,2 hPa 0,0 l/m 2,5 km/h (1 Bft) N-NO 22 14,4 C 24,9 C
04.08.2012 18:06 24,9 C 52 % 1013,2 hPa 0,0 l/m 3,6 km/h (1 Bft) NO 45 14,4 C 24,9 C
04.08.2012 18:11 24,8 C 52 % 1013,2 hPa 0,0 l/m 2,2 km/h (1 Bft) O-NO 67 14,3 C 24,8 C
04.08.2012 18:16 25,1 C 52 % 1013,2 hPa 0,0 l/m 5,8 km/h (2 Bft) NO 45 14,5 C 25,1 C
04.08.2012 18:21 25,3 C 52 % 1013,2 hPa 0,0 l/m 5,0 km/h (1 Bft) NO 45 14,7 C 25,3 C
04.08.2012 18:26 25,5 C 51 % 1012,9 hPa 0,0 l/m 6,5 km/h (2 Bft) N 360 14,6 C 25,5 C
04.08.2012 18:31 25,4 C 51 % 1013,0 hPa 0,0 l/m 5,4 km/h (1 Bft) O-NO 67 14,5 C 25,4 C
04.08.2012 18:36 25,1 C 51 % 1012,9 hPa 0,0 l/m 2,2 km/h (1 Bft) N-NO 22 14,2 C 25,1 C
04.08.2012 18:41 24,9 C 52 % 1013,0 hPa 0,0 l/m 4,0 km/h (1 Bft) NO 45 14,4 C 24,9 C
04.08.2012 18:46 24,8 C 52 % 1012,9 hPa 0,0 l/m 2,9 km/h (1 Bft) N 360 14,3 C 24,8 C
04.08.2012 18:51 24,6 C 53 % 1012,9 hPa 0,0 l/m 9,7 km/h (2 Bft) N-NO 22 14,4 C 24,6 C
04.08.2012 18:56 24,3 C 54 % 1012,9 hPa 0,0 l/m 6,8 km/h (2 Bft) N 360 14,4 C 24,3 C
04.08.2012 19:01 24,2 C 55 % 1012,9 hPa 0,0 l/m 3,6 km/h (1 Bft) O-NO 67 14,6 C 24,2 C
04.08.2012 19:06 24,1 C 56 % 1012,9 hPa 0,0 l/m 6,1 km/h (2 Bft) N-NO 22 14,8 C 24,1 C
04.08.2012 19:11 24,1 C 56 % 1013,0 hPa 0,0 l/m 3,6 km/h (1 Bft) N 360 14,8 C 24,1 C
04.08.2012 19:16 24,2 C 55 % 1013,1 hPa 0,0 l/m 2,5 km/h (1 Bft) N 360 14,6 C 24,2 C
04.08.2012 19:21 24,3 C 55 % 1013,0 hPa 0,0 l/m 0,0 km/h (0 Bft) N 360 14,7 C 24,3 C
04.08.2012 19:26 24,2 C 54 % 1013,1 hPa 0,0 l/m 0,0 km/h (0 Bft) N 360 14,3 C 24,2 C
04.08.2012 19:31 24,2 C 54 % 1013,0 hPa 0,0 l/m 6,5 km/h (2 Bft) N-NO 22 14,3 C 24,2 C
04.08.2012 19:36 24,1 C 54 % 1013,1 hPa 0,0 l/m 0,0 km/h (0 Bft) N-NO 22 14,2 C 24,1 C
04.08.2012 19:41 24,1 C 54 % 1013,1 hPa 0,0 l/m 4,0 km/h (1 Bft) O-NO 67 14,2 C 24,1 C
04.08.2012 19:46 24,1 C 54 % 1013,1 hPa 0,0 l/m 0,0 km/h (0 Bft) NO 45 14,2 C 24,1 C
04.08.2012 19:51 24,1 C 54 % 1013,3 hPa 0,0 l/m 5,0 km/h (1 Bft) O-NO 67 14,2 C 24,1 C
04.08.2012 19:56 23,9 C 54 % 1013,2 hPa 0,0 l/m 3,2 km/h (1 Bft) O-NO 67 14,0 C 23,9 C
04.08.2012 20:01 23,9 C 54 % 1013,1 hPa 0,0 l/m 1,4 km/h (1 Bft) N 360 14,0 C 23,9 C
04.08.2012 20:06 23,8 C 54 % 1013,3 hPa 0,0 l/m 3,2 km/h (1 Bft) O-NO 67 13,9 C 23,8 C
04.08.2012 20:11 23,6 C 55 % 1013,4 hPa 0,0 l/m 0,0 km/h (0 Bft) O-NO 67 14,0 C 23,6 C
04.08.2012 20:16 23,5 C 56 % 1013,4 hPa 0,0 l/m 2,5 km/h (1 Bft) O-NO 67 14,2 C 23,5 C
04.08.2012 20:21 23,4 C 57 % 1013,3 hPa 0,0 l/m 4,3 km/h (1 Bft) O-NO 67 14,4 C 23,4 C
04.08.2012 20:26 23,2 C 58 % 1013,4 hPa 0,0 l/m 2,9 km/h (1 Bft) O-NO 67 14,5 C 23,2 C
04.08.2012 20:31 23,0 C 59 % 1013,3 hPa 0,0 l/m 2,2 km/h (1 Bft) NO 45 14,5 C 23,0 C
04.08.2012 20:36 22,9 C 59 % 1013,4 hPa 0,0 l/m 5,0 km/h (1 Bft) O-NO 67 14,5 C 22,9 C
04.08.2012 20:41 22,6 C 60 % 1013,4 hPa 0,0 l/m 6,8 km/h (2 Bft) NO 45 14,4 C 22,6 C
04.08.2012 20:46 22,5 C 60 % 1013,5 hPa 0,0 l/m 3,6 km/h (1 Bft) O-NO 67 14,3 C 22,5 C
04.08.2012 20:51 22,3 C 61 % 1013,5 hPa 0,0 l/m 2,2 km/h (1 Bft) O-NO 67 14,4 C 22,3 C
04.08.2012 20:56 22,2 C 61 % 1013,5 hPa 0,0 l/m 4,3 km/h (1 Bft) O-NO 67 14,3 C 22,2 C
04.08.2012 21:01 22,0 C 61 % 1013,7 hPa 0,0 l/m 2,5 km/h (1 Bft) O-NO 67 14,1 C 22,0 C
04.08.2012 21:06 21,9 C 62 % 1013,6 hPa 0,0 l/m 3,6 km/h (1 Bft) O-NO 67 14,3 C 21,9 C
04.08.2012 21:11 21,8 C 62 % 1013,6 hPa 0,0 l/m 1,8 km/h (1 Bft) O 90 14,2 C 21,8 C
04.08.2012 21:16 21,6 C 63 % 1013,7 hPa 0,0 l/m 1,8 km/h (1 Bft) O-SO 112 14,2 C 21,6 C
04.08.2012 21:21 21,4 C 63 % 1013,5 hPa 0,0 l/m 4,0 km/h (1 Bft) O 90 14,1 C 21,4 C
04.08.2012 21:26 21,3 C 64 % 1013,6 hPa 0,0 l/m 2,5 km/h (1 Bft) O 90 14,2 C 21,3 C
04.08.2012 21:31 21,1 C 64 % 1013,6 hPa 0,0 l/m 3,2 km/h (1 Bft) O 90 14,0 C 21,1 C
04.08.2012 21:36 21,0 C 65 % 1013,5 hPa 0,0 l/m 3,2 km/h (1 Bft) O-NO 67 14,2 C 21,0 C
04.08.2012 21:41 20,9 C 65 % 1013,5 hPa 0,0 l/m 2,9 km/h (1 Bft) O-NO 67 14,1 C 20,9 C
04.08.2012 21:46 20,7 C 65 % 1013,5 hPa 0,0 l/m 2,2 km/h (1 Bft) O-SO 112 13,9 C 20,7 C
04.08.2012 21:51 20,6 C 65 % 1013,5 hPa 0,0 l/m 2,2 km/h (1 Bft) O 90 13,8 C 20,6 C
04.08.2012 21:56 20,4 C 65 % 1013,5 hPa 0,0 l/m 4,0 km/h (1 Bft) O-SO 112 13,6 C 20,4 C
04.08.2012 22:01 20,4 C 65 % 1013,6 hPa 0,0 l/m 0,0 km/h (0 Bft) O-SO 112 13,6 C 20,4 C
04.08.2012 22:06 20,3 C 65 % 1013,6 hPa 0,0 l/m 4,3 km/h (1 Bft) O-SO 112 13,5 C 20,3 C
04.08.2012 22:11 20,1 C 65 % 1013,6 hPa 0,0 l/m 3,2 km/h (1 Bft) O-SO 112 13,3 C 20,1 C
04.08.2012 22:16 19,9 C 65 % 1013,7 hPa 0,0 l/m 1,4 km/h (1 Bft) O-SO 112 13,1 C 19,9 C
04.08.2012 22:21 19,9 C 66 % 1013,7 hPa 0,0 l/m 1,4 km/h (1 Bft) O-SO 112 13,4 C 19,9 C
04.08.2012 22:26 19,8 C 66 % 1013,6 hPa 0,0 l/m 2,2 km/h (1 Bft) O-SO 112 13,3 C 19,8 C
04.08.2012 22:31 19,6 C 66 % 1013,6 hPa 0,0 l/m 2,5 km/h (1 Bft) O-SO 112 13,1 C 19,6 C
04.08.2012 22:36 19,6 C 67 % 1013,7 hPa 0,0 l/m 2,5 km/h (1 Bft) O-SO 112 13,3 C 19,6 C
04.08.2012 22:41 19,5 C 67 % 1013,7 hPa 0,0 l/m 1,1 km/h (1 Bft) O-SO 112 13,2 C 19,5 C
04.08.2012 22:46 19,4 C 68 % 1013,7 hPa 0,0 l/m 1,8 km/h (1 Bft) O-SO 112 13,3 C 19,4 C
04.08.2012 22:51 19,3 C 68 % 1013,8 hPa 0,0 l/m 1,4 km/h (1 Bft) O-SO 112 13,2 C 19,3 C
04.08.2012 22:56 19,3 C 68 % 1013,7 hPa 0,0 l/m 2,5 km/h (1 Bft) O-SO 112 13,2 C 19,3 C
04.08.2012 23:01 19,2 C 69 % 1013,7 hPa 0,0 l/m 3,6 km/h (1 Bft) O-SO 112 13,4 C 19,2 C
04.08.2012 23:06 19,1 C 69 % 1013,7 hPa 0,0 l/m 2,2 km/h (1 Bft) O 90 13,3 C 19,1 C
04.08.2012 23:11 19,0 C 69 % 1013,7 hPa 0,0 l/m 1,4 km/h (1 Bft) O-SO 112 13,2 C 19,0 C
04.08.2012 23:16 18,9 C 70 % 1013,7 hPa 0,0 l/m 0,0 km/h (0 Bft) O-SO 112 13,3 C 18,9 C
04.08.2012 23:21 18,9 C 70 % 1013,6 hPa 0,0 l/m 3,2 km/h (1 Bft) O-SO 112 13,3 C 18,9 C
04.08.2012 23:26 18,8 C 70 % 1013,7 hPa 0,0 l/m 1,4 km/h (1 Bft) O-SO 112 13,2 C 18,8 C
04.08.2012 23:31 18,8 C 71 % 1013,8 hPa 0,0 l/m 6,8 km/h (2 Bft) SO 135 13,4 C 18,8 C
04.08.2012 23:36 18,6 C 71 % 1013,8 hPa 0,0 l/m 1,8 km/h (1 Bft) O-SO 112 13,2 C 18,6 C
04.08.2012 23:41 18,6 C 71 % 1013,9 hPa 0,0 l/m 0,0 km/h (0 Bft) SO 135 13,2 C 18,6 C
04.08.2012 23:46 18,5 C 71 % 1013,9 hPa 0,0 l/m 0,0 km/h (0 Bft) O-SO 112 13,1 C 18,5 C
04.08.2012 23:51 18,4 C 72 % 1013,9 hPa 0,0 l/m 1,4 km/h (1 Bft) O-SO 112 13,3 C 18,4 C
04.08.2012 23:56 18,3 C 72 % 1013,8 hPa 0,0 l/m 2,5 km/h (1 Bft) O-SO 112 13,2 C 18,3 C
_ Min-Zeit 05:26 16:51 16:36 - 00:01 - - 17:01 05:26
Minimum _ 14,9 C 37 % 1012,9 hPa - 0,0 km/h (0 Bft) - - 11,8 C 14,9 C
_ Max-Zeit 16:46 06:31 00:11 00:01 14:26 - - 09:56 16:46
Maximum _ 28,7 C 88 % 1016,2 hPa 0,0 l/m 28,4 km/h
NW (4 Bft)
- - 15,8 C 28,7 C
Durchschnitt _ 21,8 C 63 % 1014,6 hPa #0,0 l/m 2,7 km/h (1 Bft) O-SO - 13,9 C 21,8 C
(c) by David Heller